< Typhoon 197915 1979 Season Typhoon 197917 >
Typhoon 197916 (OWEN)
General InformationTrack Information on Google MapsDetailed Wind InformationList of All Images || NewsDisaster Info.ResourceGoogle EarthGE AnimationAtom FeedGeoJSON
Detalied Best Track (Time Zone = UTC)
Year Month Day Hour Lat. Long. Pressure (hPa) Wind (kt) Class Image Chart
1979 9 21 12 12.0 140.0 1006 0 2 Image Chart
1979 9 21 18 12.0 139.4 1004 0 2 Image Chart
1979 9 22 00 12.6 139.0 1000 0 2 Image Chart
1979 9 22 06 12.5 138.1 1000 0 2 Image Chart
1979 9 22 12 12.3 137.5 1002 0 2 Image Chart
1979 9 22 18 12.2 137.2 1002 0 2 Image Chart
1979 9 23 00 12.5 136.9 1000 0 2 Image Chart
1979 9 23 06 13.2 136.8 994 45 3 Image Chart
1979 9 23 12 13.8 136.1 994 45 3 Image Chart
1979 9 23 18 14.6 135.8 994 45 3 Image Chart
1979 9 24 00 16.4 135.4 990 45 3 Image Chart
1979 9 24 06 17.5 134.4 985 55 4 Image Chart
1979 9 24 12 18.9 133.3 980 60 4 Image Chart
1979 9 24 18 20.3 132.0 970 70 5 Image Chart
1979 9 25 00 20.9 130.8 965 70 5 Image Chart
1979 9 25 06 21.3 129.9 960 70 5 Image Chart
1979 9 25 12 22.0 129.8 950 80 5 Image Chart
1979 9 25 18 22.6 129.5 930 85 5 Image Chart
1979 9 26 00 23.1 129.0 920 90 5 Image Chart
1979 9 26 06 23.4 129.1 920 90 5 Image Chart
1979 9 26 12 23.8 129.3 925 90 5 Image Chart
1979 9 26 18 24.4 129.4 935 90 5 Image Chart
1979 9 27 00 25.0 129.5 945 75 5 Image Chart
1979 9 27 06 25.3 129.6 945 75 5 Image Chart
1979 9 27 12 25.9 129.7 940 75 5 Image Chart
1979 9 27 18 26.3 129.7 945 75 5 Image Chart
1979 9 28 00 26.9 129.6 950 75 5 Image Chart
1979 9 28 06 27.2 129.6 955 70 5 Image Chart
1979 9 28 12 27.6 129.8 955 70 5 Image Chart
1979 9 28 18 27.7 129.8 955 70 5 Image Chart
1979 9 29 00 28.0 129.8 950 70 5 Image Chart
1979 9 29 06 28.5 129.8 950 70 5 Image Chart
1979 9 29 12 29.0 130.1 950 70 5 Image Chart
1979 9 29 18 29.8 130.5 950 70 5 Image Chart
1979 9 30 00 30.9 131.2 955 65 5 Image Chart
1979 9 30 06 32.3 132.9 955 65 5 Image Chart
1979 9 30 12 34.0 134.8 960 65 5 Image Chart
1979 9 30 18 36.7 138.0 984 50 4 Image Chart
1979 10 1 00 40.5 142.0 978 40 3 Image Chart
1979 10 1 06 43.4 145.6 975 0 6 Image Chart
1979 10 1 12 45.0 149.0 976 0 6 Image Chart
1979 10 1 18 46.0 152.0 976 0 6 Image Chart
1979 10 2 00 47.0 156.0 976 0 6 Image Chart
1979 10 2 06 47.0 160.0 976 0 6 Image Chart
1979 10 2 12 47.0 164.0 976 0 6 Image Chart
1979 10 2 18 47.0 168.0 976 0 6 Image Chart
1979 10 3 00 47.0 174.0 972 0 6 Image Chart
1979 10 3 06 47.0 178.0 964 0 6 Image Chart
Japan Meteorological Agency Best Track Data | Correction Date : 1992-10-21
< Typhoon 197915 1979 Season Typhoon 197917 >

Help